sensor_id;sensor_type;location;lat;lon;timestamp;pressure;altitude;pressure_sealevel;temperature;humidity
57442;BME280;43284;47.042;15.498;2023-05-24T00:02:23;97001.81;;;13.95;100.00
57442;BME280;43284;47.042;15.498;2023-05-24T00:04:51;97003.59;;;13.94;100.00
57442;BME280;43284;47.042;15.498;2023-05-24T00:07:17;97001.47;;;13.87;100.00
57442;BME280;43284;47.042;15.498;2023-05-24T00:09:43;96995.47;;;13.85;100.00
57442;BME280;43284;47.042;15.498;2023-05-24T00:12:08;97000.72;;;13.85;100.00
57442;BME280;43284;47.042;15.498;2023-05-24T00:14:33;97010.41;;;13.84;100.00
57442;BME280;43284;47.042;15.498;2023-05-24T00:16:59;96995.56;;;13.83;100.00
57442;BME280;43284;47.042;15.498;2023-05-24T00:19:25;97002.41;;;13.86;100.00
57442;BME280;43284;47.042;15.498;2023-05-24T00:21:52;97001.47;;;13.87;100.00
57442;BME280;43284;47.042;15.498;2023-05-24T00:24:17;97002.31;;;13.87;100.00
57442;BME280;43284;47.042;15.498;2023-05-24T00:26:43;97005.59;;;13.91;100.00
57442;BME280;43284;47.042;15.498;2023-05-24T00:29:09;97002.97;;;13.91;100.00
57442;BME280;43284;47.042;15.498;2023-05-24T00:31:34;97007.28;;;13.92;100.00
57442;BME280;43284;47.042;15.498;2023-05-24T00:34:00;97004.63;;;13.92;100.00
57442;BME280;43284;47.042;15.498;2023-05-24T00:36:25;97007.28;;;13.92;100.00
57442;BME280;43284;47.042;15.498;2023-05-24T00:38:51;97002.84;;;13.92;100.00
57442;BME280;43284;47.042;15.498;2023-05-24T00:41:19;97008.97;;;13.93;100.00
57442;BME280;43284;47.042;15.498;2023-05-24T00:43:45;97009.91;;;13.92;100.00
57442;BME280;43284;47.042;15.498;2023-05-24T00:46:28;97010.94;;;13.89;100.00
57442;BME280;43284;47.042;15.498;2023-05-24T00:48:54;97004.94;;;13.87;100.00
57442;BME280;43284;47.042;15.498;2023-05-24T00:51:20;97018.09;;;13.87;100.00
57442;BME280;43284;47.042;15.498;2023-05-24T00:53:47;97007.56;;;13.87;100.00
57442;BME280;43284;47.042;15.498;2023-05-24T00:56:14;97005.78;;;13.88;100.00
57442;BME280;43284;47.042;15.498;2023-05-24T00:58:40;97003.97;;;13.88;100.00
57442;BME280;43284;47.042;15.498;2023-05-24T01:01:07;97014.63;;;13.87;100.00
57442;BME280;43284;47.042;15.498;2023-05-24T01:03:33;97010.19;;;13.87;100.00
57442;BME280;43284;47.042;15.498;2023-05-24T01:06:03;97012.81;;;13.87;100.00
57442;BME280;43284;47.042;15.498;2023-05-24T01:11:37;97015.44;;;13.87;100.00
57442;BME280;43284;47.042;15.498;2023-05-24T01:17:42;97011.13;;;13.86;100.00
57442;BME280;43284;47.042;15.498;2023-05-24T01:20:07;97011.13;;;13.86;100.00
57442;BME280;43284;47.042;15.498;2023-05-24T01:27:35;97006.91;;;13.84;100.00
57442;BME280;43284;47.042;15.498;2023-05-24T01:30:02;97017.53;;;13.82;100.00
57442;BME280;43284;47.042;15.498;2023-05-24T01:32:29;97018.56;;;13.79;100.00
57442;BME280;43284;47.042;15.498;2023-05-24T01:34:54;97023.94;;;13.78;100.00
57442;BME280;43284;47.042;15.498;2023-05-24T01:37:20;97029.47;;;13.73;100.00
57442;BME280;43284;47.042;15.498;2023-05-24T01:39:45;97035.38;;;13.77;100.00
57442;BME280;43284;47.042;15.498;2023-05-24T01:45:40;97033.41;;;13.80;100.00
57442;BME280;43284;47.042;15.498;2023-05-24T01:48:23;97032.56;;;13.80;100.00
57442;BME280;43284;47.042;15.498;2023-05-24T01:50:59;97034.22;;;13.81;100.00
57442;BME280;43284;47.042;15.498;2023-05-24T01:53:31;97034.31;;;13.79;100.00
57442;BME280;43284;47.042;15.498;2023-05-24T01:56:00;97035.28;;;13.78;100.00
57442;BME280;43284;47.042;15.498;2023-05-24T01:58:26;97032.75;;;13.77;100.00
57442;BME280;43284;47.042;15.498;2023-05-24T02:00:54;97035.38;;;13.77;100.00
57442;BME280;43284;47.042;15.498;2023-05-24T02:03:20;97037.06;;;13.78;100.00
57442;BME280;43284;47.042;15.498;2023-05-24T02:05:46;97037.91;;;13.78;100.00
57442;BME280;43284;47.042;15.498;2023-05-24T02:08:12;97032.84;;;13.75;100.00
57442;BME280;43284;47.042;15.498;2023-05-24T02:10:38;97038.94;;;13.76;100.00
57442;BME280;43284;47.042;15.498;2023-05-24T02:13:05;97033.69;;;13.76;100.00
57442;BME280;43284;47.042;15.498;2023-05-24T02:15:31;97039.88;;;13.75;100.00
57442;BME280;43284;47.042;15.498;2023-05-24T02:17:57;97040.81;;;13.74;100.00
57442;BME280;43284;47.042;15.498;2023-05-24T02:20:26;97035.56;;;13.74;100.00
57442;BME280;43284;47.042;15.498;2023-05-24T02:22:52;97044.28;;;13.74;100.00
57442;BME280;43284;47.042;15.498;2023-05-24T02:25:18;97044.19;;;13.76;100.00
57442;BME280;43284;47.042;15.498;2023-05-24T02:27:43;97046.00;;;13.75;100.00
57442;BME280;43284;47.042;15.498;2023-05-24T02:30:12;97047.75;;;13.75;100.00
57442;BME280;43284;47.042;15.498;2023-05-24T02:32:38;97045.13;;;13.75;100.00
57442;BME280;43284;47.042;15.498;2023-05-24T02:35:04;97048.50;;;13.77;100.00
57442;BME280;43284;47.042;15.498;2023-05-24T02:37:30;97046.75;;;13.77;100.00
57442;BME280;43284;47.042;15.498;2023-05-24T02:39:56;97042.31;;;13.78;100.00
57442;BME280;43284;47.042;15.498;2023-05-24T02:42:21;97039.69;;;13.78;100.00
57442;BME280;43284;47.042;15.498;2023-05-24T02:44:47;97038.84;;;13.77;100.00
57442;BME280;43284;47.042;15.498;2023-05-24T02:47:14;97038.13;;;13.75;100.00
57442;BME280;43284;47.042;15.498;2023-05-24T02:49:40;97039.13;;;13.73;100.00
57442;BME280;43284;47.042;15.498;2023-05-24T02:52:05;97034.72;;;13.73;100.00
57442;BME280;43284;47.042;15.498;2023-05-24T02:54:31;97041.75;;;13.73;100.00
57442;BME280;43284;47.042;15.498;2023-05-24T02:56:57;97037.44;;;13.72;100.00
57442;BME280;43284;47.042;15.498;2023-05-24T02:59:23;97034.81;;;13.72;100.00
57442;BME280;43284;47.042;15.498;2023-05-24T03:01:49;97026.09;;;13.71;100.00
57442;BME280;43284;47.042;15.498;2023-05-24T03:04:15;97028.81;;;13.70;100.00
57442;BME280;43284;47.042;15.498;2023-05-24T03:06:40;97045.91;;;13.63;100.00
57442;BME280;43284;47.042;15.498;2023-05-24T03:09:06;97049.38;;;13.63;100.00
57442;BME280;43284;47.042;15.498;2023-05-24T03:11:31;97045.91;;;13.63;100.00
57442;BME280;43284;47.042;15.498;2023-05-24T03:13:57;97045.03;;;13.62;100.00
57442;BME280;43284;47.042;15.498;2023-05-24T03:16:23;97052.09;;;13.62;100.00
57442;BME280;43284;47.042;15.498;2023-05-24T03:18:49;97055.66;;;13.60;100.00
57442;BME280;43284;47.042;15.498;2023-05-24T03:21:16;97053.88;;;13.61;100.00
57442;BME280;43284;47.042;15.498;2023-05-24T03:23:41;97062.59;;;13.62;100.00
57442;BME280;43284;47.042;15.498;2023-05-24T03:26:07;97057.34;;;13.62;100.00
57442;BME280;43284;47.042;15.498;2023-05-24T03:28:33;97052.09;;;13.62;100.00
57442;BME280;43284;47.042;15.498;2023-05-24T03:30:58;97051.16;;;13.63;100.00
57442;BME280;43284;47.042;15.498;2023-05-24T03:33:24;97062.44;;;13.65;100.00
57442;BME280;43284;47.042;15.498;2023-05-24T03:35:49;97064.94;;;13.66;100.00
57442;BME280;43284;47.042;15.498;2023-05-24T03:38:15;97066.63;;;13.67;100.00
57442;BME280;43284;47.042;15.498;2023-05-24T03:40:41;97067.47;;;13.68;100.00
57442;BME280;43284;47.042;15.498;2023-05-24T03:43:06;97064.84;;;13.68;100.00
57442;BME280;43284;47.042;15.498;2023-05-24T03:45:32;97064.84;;;13.68;100.00
57442;BME280;43284;47.042;15.498;2023-05-24T03:47:57;97066.56;;;13.69;100.00
57442;BME280;43284;47.042;15.498;2023-05-24T03:50:23;97076.09;;;13.70;100.00
57442;BME280;43284;47.042;15.498;2023-05-24T03:52:48;97074.31;;;13.70;100.00
57442;BME280;43284;47.042;15.498;2023-05-24T03:55:14;97073.41;;;13.71;100.00
57442;BME280;43284;47.042;15.498;2023-05-24T03:57:40;97077.59;;;13.74;100.00
57442;BME280;43284;47.042;15.498;2023-05-24T04:00:08;97074.03;;;13.75;100.00
57442;BME280;43284;47.042;15.498;2023-05-24T04:02:35;97086.16;;;13.77;100.00
57442;BME280;43284;47.042;15.498;2023-05-24T04:05:04;97079.09;;;13.78;100.00
57442;BME280;43284;47.042;15.498;2023-05-24T04:07:35;97080.78;;;13.79;100.00
57442;BME280;43284;47.042;15.498;2023-05-24T04:10:05;97079.94;;;13.78;100.00
57442;BME280;43284;47.042;15.498;2023-05-24T04:12:31;97086.88;;;13.79;100.00
57442;BME280;43284;47.042;15.498;2023-05-24T04:14:58;97092.13;;;13.79;100.00
57442;BME280;43284;47.042;15.498;2023-05-24T04:17:23;97086.97;;;13.78;100.00
57442;BME280;43284;47.042;15.498;2023-05-24T04:19:50;97092.41;;;13.75;100.00
57442;BME280;43284;47.042;15.498;2023-05-24T04:22:16;97100.22;;;13.76;100.00
57442;BME280;43284;47.042;15.498;2023-05-24T04:24:43;97106.22;;;13.78;100.00
57442;BME280;43284;47.042;15.498;2023-05-24T04:27:09;97099.16;;;13.79;100.00
57442;BME280;43284;47.042;15.498;2023-05-24T04:29:35;97105.38;;;13.78;100.00
57442;BME280;43284;47.042;15.498;2023-05-24T04:32:00;97100.00;;;13.79;100.00
57442;BME280;43284;47.042;15.498;2023-05-24T04:34:27;97100.88;;;13.80;100.00
57442;BME280;43284;47.042;15.498;2023-05-24T04:36:54;97104.25;;;13.82;100.00
57442;BME280;43284;47.042;15.498;2023-05-24T04:39:20;97115.59;;;13.83;100.00
57442;BME280;43284;47.042;15.498;2023-05-24T04:41:45;97115.69;;;13.81;100.00
57442;BME280;43284;47.042;15.498;2023-05-24T04:44:15;97106.97;;;13.80;100.00
57442;BME280;43284;47.042;15.498;2023-05-24T04:46:41;97108.75;;;13.80;100.00
57442;BME280;43284;47.042;15.498;2023-05-24T04:49:06;97112.13;;;13.82;100.00
57442;BME280;43284;47.042;15.498;2023-05-24T04:51:33;97108.63;;;13.81;100.00
57442;BME280;43284;47.042;15.498;2023-05-24T04:53:58;97099.84;;;13.83;100.00
57442;BME280;43284;47.042;15.498;2023-05-24T04:56:25;97116.34;;;13.85;100.00
57442;BME280;43284;47.042;15.498;2023-05-24T04:58:51;97107.63;;;13.84;100.00
57442;BME280;43284;47.042;15.498;2023-05-24T05:01:16;97110.03;;;13.87;100.00
57442;BME280;43284;47.042;15.498;2023-05-24T05:03:42;97113.50;;;13.88;100.00
57442;BME280;43284;47.042;15.498;2023-05-24T05:06:10;97121.41;;;13.88;100.00
57442;BME280;43284;47.042;15.498;2023-05-24T05:08:36;97119.59;;;13.88;100.00
57442;BME280;43284;47.042;15.498;2023-05-24T05:11:01;97115.22;;;13.89;100.00
57442;BME280;43284;47.042;15.498;2023-05-24T05:13:27;97115.09;;;13.90;100.00
57442;BME280;43284;47.042;15.498;2023-05-24T05:15:52;97120.28;;;13.92;100.00
57442;BME280;43284;47.042;15.498;2023-05-24T05:18:18;97115.69;;;13.95;100.00
57442;BME280;43284;47.042;15.498;2023-05-24T05:20:43;97121.69;;;13.97;100.00
57442;BME280;43284;47.042;15.498;2023-05-24T05:23:09;97119.81;;;13.99;100.00
57442;BME280;43284;47.042;15.498;2023-05-24T05:25:34;97120.56;;;14.01;100.00
57442;BME280;43284;47.042;15.498;2023-05-24T05:28:00;97124.75;;;14.04;100.00
57442;BME280;43284;47.042;15.498;2023-05-24T05:30:26;97121.28;;;14.04;100.00
57442;BME280;43284;47.042;15.498;2023-05-24T05:32:51;97124.66;;;14.06;100.00
57442;BME280;43284;47.042;15.498;2023-05-24T05:35:17;97129.81;;;14.07;100.00
57442;BME280;43284;47.042;15.498;2023-05-24T05:37:42;97130.56;;;14.09;100.00
57442;BME280;43284;47.042;15.498;2023-05-24T05:40:08;97126.06;;;14.11;100.00
57442;BME280;43284;47.042;15.498;2023-05-24T05:42:34;97126.81;;;14.13;100.00
57442;BME280;43284;47.042;15.498;2023-05-24T05:44:59;97126.72;;;14.15;100.00
57442;BME280;43284;47.042;15.498;2023-05-24T05:47:24;97124.94;;;14.15;100.00
57442;BME280;43284;47.042;15.498;2023-05-24T05:49:50;97129.22;;;14.16;100.00
57442;BME280;43284;47.042;15.498;2023-05-24T05:52:15;97130.81;;;14.19;100.00
57442;BME280;43284;47.042;15.498;2023-05-24T05:54:41;97129.88;;;14.20;100.00
57442;BME280;43284;47.042;15.498;2023-05-24T05:57:06;97137.78;;;14.20;100.00
57442;BME280;43284;47.042;15.498;2023-05-24T05:59:34;97141.16;;;14.22;100.00
57442;BME280;43284;47.042;15.498;2023-05-24T06:02:01;97143.56;;;14.25;100.00
57442;BME280;43284;47.042;15.498;2023-05-24T06:04:27;97137.47;;;14.25;100.00
57442;BME280;43284;47.042;15.498;2023-05-24T06:06:52;97149.78;;;14.24;100.00
57442;BME280;43284;47.042;15.498;2023-05-24T06:09:18;97154.09;;;14.25;100.00
57442;BME280;43284;47.042;15.498;2023-05-24T06:11:44;97151.38;;;14.27;100.00
57442;BME280;43284;47.042;15.498;2023-05-24T06:14:10;97151.28;;;14.28;100.00
57442;BME280;43284;47.042;15.498;2023-05-24T06:16:36;97145.81;;;14.31;100.00
57442;BME280;43284;47.042;15.498;2023-05-24T06:19:06;97154.53;;;14.32;100.00
57442;BME280;43284;47.042;15.498;2023-05-24T06:21:32;97150.16;;;14.32;100.00
57442;BME280;43284;47.042;15.498;2023-05-24T06:23:58;97152.66;;;14.34;100.00
57442;BME280;43284;47.042;15.498;2023-05-24T06:26:24;97157.00;;;14.35;100.00
57442;BME280;43284;47.042;15.498;2023-05-24T06:28:51;97161.50;;;14.33;100.00
57442;BME280;43284;47.042;15.498;2023-05-24T06:31:16;97155.19;;;14.35;100.00
57442;BME280;43284;47.042;15.498;2023-05-24T06:33:42;97163.94;;;14.36;100.00
57442;BME280;43284;47.042;15.498;2023-05-24T06:36:08;97167.41;;;14.36;100.00
57442;BME280;43284;47.042;15.498;2023-05-24T06:38:34;97165.72;;;14.35;100.00
57442;BME280;43284;47.042;15.498;2023-05-24T06:41:00;97170.03;;;14.36;100.00
57442;BME280;43284;47.042;15.498;2023-05-24T06:43:26;97164.75;;;14.36;100.00
57442;BME280;43284;47.042;15.498;2023-05-24T06:45:51;97171.72;;;14.37;100.00
57442;BME280;43284;47.042;15.498;2023-05-24T06:48:17;97167.22;;;14.39;100.00
57442;BME280;43284;47.042;15.498;2023-05-24T06:50:42;97175.03;;;14.41;100.00
57442;BME280;43284;47.042;15.498;2023-05-24T06:53:09;97174.91;;;14.42;100.00
57442;BME280;43284;47.042;15.498;2023-05-24T06:55:35;97174.16;;;14.40;100.00
57442;BME280;43284;47.042;15.498;2023-05-24T06:58:00;97171.44;;;14.42;100.00
57442;BME280;43284;47.042;15.498;2023-05-24T07:00:26;97170.38;;;14.45;100.00
57442;BME280;43284;47.042;15.498;2023-05-24T07:02:52;97184.19;;;14.48;100.00
57442;BME280;43284;47.042;15.498;2023-05-24T07:05:17;97176.09;;;14.51;100.00
57442;BME280;43284;47.042;15.498;2023-05-24T07:07:43;97185.56;;;14.54;100.00
57442;BME280;43284;47.042;15.498;2023-05-24T07:10:10;97189.06;;;14.54;100.00
57442;BME280;43284;47.042;15.498;2023-05-24T07:12:36;97189.94;;;14.55;100.00
57442;BME280;43284;47.042;15.498;2023-05-24T07:15:03;97199.69;;;14.53;100.00
57442;BME280;43284;47.042;15.498;2023-05-24T07:17:29;97199.78;;;14.51;100.00
57442;BME280;43284;47.042;15.498;2023-05-24T07:19:55;97197.06;;;14.53;100.00
57442;BME280;43284;47.042;15.498;2023-05-24T07:22:21;97192.00;;;14.50;100.00
57442;BME280;43284;47.042;15.498;2023-05-24T07:24:48;97187.00;;;14.45;100.00
57442;BME280;43284;47.042;15.498;2023-05-24T07:27:14;97195.56;;;14.49;100.00
57442;BME280;43284;47.042;15.498;2023-05-24T07:29:39;97195.56;;;14.49;100.00
57442;BME280;43284;47.042;15.498;2023-05-24T07:32:06;97196.22;;;14.52;100.00
57442;BME280;43284;47.042;15.498;2023-05-24T07:34:31;97189.25;;;14.51;100.00
57442;BME280;43284;47.042;15.498;2023-05-24T07:36:57;97194.25;;;14.56;100.00
57442;BME280;43284;47.042;15.498;2023-05-24T07:39:25;97194.06;;;14.59;100.00
57442;BME280;43284;47.042;15.498;2023-05-24T07:41:54;97193.84;;;14.62;100.00
57442;BME280;43284;47.042;15.498;2023-05-24T07:44:19;97202.69;;;14.61;100.00
57442;BME280;43284;47.042;15.498;2023-05-24T07:46:45;97196.47;;;14.62;100.00
57442;BME280;43284;47.042;15.498;2023-05-24T07:49:11;97205.34;;;14.61;100.00
57442;BME280;43284;47.042;15.498;2023-05-24T07:51:37;97201.84;;;14.60;100.00
57442;BME280;43284;47.042;15.498;2023-05-24T07:54:03;97209.63;;;14.62;100.00
57442;BME280;43284;47.042;15.498;2023-05-24T07:56:29;97215.84;;;14.61;100.00
57442;BME280;43284;47.042;15.498;2023-05-24T07:58:56;97212.34;;;14.60;100.00
57442;BME280;43284;47.042;15.498;2023-05-24T08:01:28;97208.88;;;14.60;100.00
57442;BME280;43284;47.042;15.498;2023-05-24T08:03:53;97209.84;;;14.59;100.00
57442;BME280;43284;47.042;15.498;2023-05-24T08:06:20;97215.09;;;14.59;100.00
57442;BME280;43284;47.042;15.498;2023-05-24T08:08:48;97209.94;;;14.57;100.00
57442;BME280;43284;47.042;15.498;2023-05-24T08:11:16;97209.19;;;14.55;100.00
57442;BME280;43284;47.042;15.498;2023-05-24T08:13:43;97211.13;;;14.52;100.00
57442;BME280;43284;47.042;15.498;2023-05-24T08:16:08;97213.75;;;14.52;100.00
57442;BME280;43284;47.042;15.498;2023-05-24T08:18:34;97219.72;;;14.55;100.00
57442;BME280;43284;47.042;15.498;2023-05-24T08:20:59;97218.00;;;14.54;100.00
57442;BME280;43284;47.042;15.498;2023-05-24T08:23:25;97221.56;;;14.53;100.00
57442;BME280;43284;47.042;15.498;2023-05-24T08:25:51;97216.31;;;14.53;100.00
57442;BME280;43284;47.042;15.498;2023-05-24T08:28:17;97231.16;;;14.54;100.00
57442;BME280;43284;47.042;15.498;2023-05-24T08:30:43;97220.63;;;14.54;100.00
57442;BME280;43284;47.042;15.498;2023-05-24T08:33:08;97220.53;;;14.56;100.00
57442;BME280;43284;47.042;15.498;2023-05-24T08:35:34;97232.91;;;14.54;100.00
57442;BME280;43284;47.042;15.498;2023-05-24T08:38:00;97234.72;;;14.53;100.00
57442;BME280;43284;47.042;15.498;2023-05-24T08:40:26;97230.28;;;14.54;100.00
57442;BME280;43284;47.042;15.498;2023-05-24T08:42:52;97232.91;;;14.54;100.00
57442;BME280;43284;47.042;15.498;2023-05-24T08:45:20;97233.78;;;14.54;100.00
57442;BME280;43284;47.042;15.498;2023-05-24T08:47:47;97233.78;;;14.54;100.00
57442;BME280;43284;47.042;15.498;2023-05-24T08:50:14;97238.88;;;14.57;100.00
57442;BME280;43284;47.042;15.498;2023-05-24T08:52:41;97243.94;;;14.60;100.00
57442;BME280;43284;47.042;15.498;2023-05-24T08:55:07;97237.00;;;14.59;100.00
57442;BME280;43284;47.042;15.498;2023-05-24T08:57:34;97236.91;;;14.61;100.00
57442;BME280;43284;47.042;15.498;2023-05-24T09:00:08;97243.31;;;14.57;100.00
57442;BME280;43284;47.042;15.498;2023-05-24T09:02:37;97250.34;;;14.56;100.00
57442;BME280;43284;47.042;15.498;2023-05-24T09:05:03;97259.91;;;14.57;100.00
57442;BME280;43284;47.042;15.498;2023-05-24T09:07:30;97261.72;;;14.57;100.00
57442;BME280;43284;47.042;15.498;2023-05-24T09:09:59;97265.09;;;14.59;100.00
57442;BME280;43284;47.042;15.498;2023-05-24T09:12:26;97257.94;;;14.61;100.00
57442;BME280;43284;47.042;15.498;2023-05-24T09:14:56;97258.88;;;14.60;100.00
57442;BME280;43284;47.042;15.498;2023-05-24T09:17:22;97260.47;;;14.62;100.00
57442;BME280;43284;47.042;15.498;2023-05-24T09:19:50;97265.94;;;14.59;100.00
57442;BME280;43284;47.042;15.498;2023-05-24T09:22:16;97263.75;;;14.52;100.00
57442;BME280;43284;47.042;15.498;2023-05-24T09:24:48;97261.03;;;14.53;100.00
57442;BME280;43284;47.042;15.498;2023-05-24T09:27:15;97263.75;;;14.52;100.00
57442;BME280;43284;47.042;15.498;2023-05-24T09:29:42;97262.16;;;14.49;100.00
57442;BME280;43284;47.042;15.498;2023-05-24T09:32:11;97267.53;;;14.48;100.00
57442;BME280;43284;47.042;15.498;2023-05-24T09:34:39;97261.97;;;14.52;100.00
57442;BME280;43284;47.042;15.498;2023-05-24T09:37:08;97260.09;;;14.54;100.00
57442;BME280;43284;47.042;15.498;2023-05-24T09:39:33;97267.53;;;14.48;100.00
57442;BME280;43284;47.042;15.498;2023-05-24T09:42:01;97266.38;;;14.52;100.00
57442;BME280;43284;47.042;15.498;2023-05-24T09:44:27;97267.91;;;14.56;100.00
57442;BME280;43284;47.042;15.498;2023-05-24T09:46:53;97266.38;;;14.52;100.00
57442;BME280;43284;47.042;15.498;2023-05-24T09:49:25;97272.59;;;14.51;100.00
57442;BME280;43284;47.042;15.498;2023-05-24T09:51:51;97265.09;;;14.59;100.00
57442;BME280;43284;47.042;15.498;2023-05-24T09:54:16;97271.19;;;14.59;100.00
57442;BME280;43284;47.042;15.498;2023-05-24T09:56:45;97273.53;;;14.64;100.00
57442;BME280;43284;47.042;15.498;2023-05-24T09:59:11;97268.78;;;14.56;100.00
57442;BME280;43284;47.042;15.498;2023-05-24T10:01:36;97269.59;;;14.57;100.00
57442;BME280;43284;47.042;15.498;2023-05-24T10:04:02;97270.25;;;14.60;100.00
57442;BME280;43284;47.042;15.498;2023-05-24T10:06:32;97268.34;;;14.62;100.00
57442;BME280;43284;47.042;15.498;2023-05-24T10:09:02;97267.22;;;14.67;100.00
57442;BME280;43284;47.042;15.498;2023-05-24T10:11:31;97269.78;;;14.68;100.00
57442;BME280;43284;47.042;15.498;2023-05-24T10:13:58;97269.47;;;14.73;100.00
57442;BME280;43284;47.042;15.498;2023-05-24T10:16:24;97270.44;;;14.72;100.00
57442;BME280;43284;47.042;15.498;2023-05-24T10:18:49;97271.19;;;14.74;100.00
57442;BME280;43284;47.042;15.498;2023-05-24T10:21:16;97270.00;;;14.78;100.00
57442;BME280;43284;47.042;15.498;2023-05-24T10:23:44;97271.41;;;14.83;100.00
57442;BME280;43284;47.042;15.498;2023-05-24T10:26:15;97271.13;;;14.88;100.00
57442;BME280;43284;47.042;15.498;2023-05-24T10:28:47;97270.94;;;14.91;100.00
57442;BME280;43284;47.042;15.498;2023-05-24T10:31:27;97274.13;;;14.96;100.00
57442;BME280;43284;47.042;15.498;2023-05-24T10:33:56;97273.06;;;14.99;100.00
57442;BME280;43284;47.042;15.498;2023-05-24T10:36:22;97271.19;;;15.01;100.00
57442;BME280;43284;47.042;15.498;2023-05-24T10:38:51;97276.25;;;15.04;100.00
57442;BME280;43284;47.042;15.498;2023-05-24T10:41:17;97275.97;;;15.09;100.00
57442;BME280;43284;47.042;15.498;2023-05-24T10:43:45;97281.94;;;15.11;100.00
57442;BME280;43284;47.042;15.498;2023-05-24T10:46:13;97272.28;;;15.11;100.00
57442;BME280;43284;47.042;15.498;2023-05-24T10:48:41;97282.50;;;15.16;100.00
57442;BME280;43284;47.042;15.498;2023-05-24T10:51:28;97282.41;;;15.17;100.00
57442;BME280;43284;47.042;15.498;2023-05-24T10:53:57;97278.84;;;15.18;100.00
57442;BME280;43284;47.042;15.498;2023-05-24T10:56:26;97274.00;;;15.25;100.00
57442;BME280;43284;47.042;15.498;2023-05-24T11:01:31;97277.28;;;15.29;100.00
57442;BME280;43284;47.042;15.498;2023-05-24T11:04:11;97267.38;;;15.32;100.00
57442;BME280;43284;47.042;15.498;2023-05-24T11:06:54;97269.44;;;15.41;100.00
57442;BME280;43284;47.042;15.498;2023-05-24T11:09:20;97271.63;;;15.48;100.00
57442;BME280;43284;47.042;15.498;2023-05-24T11:11:48;97268.50;;;15.55;100.00
57442;BME280;43284;47.042;15.498;2023-05-24T11:14:21;97262.09;;;15.59;100.00
57442;BME280;43284;47.042;15.498;2023-05-24T11:16:48;97270.50;;;15.64;100.00
57442;BME280;43284;47.042;15.498;2023-05-24T11:19:20;97268.41;;;15.70;100.00
57442;BME280;43284;47.042;15.498;2023-05-24T11:21:47;97262.75;;;15.76;100.00
57442;BME280;43284;47.042;15.498;2023-05-24T11:24:15;97268.56;;;15.81;100.00
57442;BME280;43284;47.042;15.498;2023-05-24T11:26:41;97263.59;;;15.76;100.00
57442;BME280;43284;47.042;15.498;2023-05-24T11:29:08;97265.50;;;15.87;100.00
57442;BME280;43284;47.042;15.498;2023-05-24T11:31:33;97266.56;;;15.84;100.00
57442;BME280;43284;47.042;15.498;2023-05-24T11:34:04;97261.50;;;15.81;100.00
57442;BME280;43284;47.042;15.498;2023-05-24T11:36:29;97260.97;;;15.89;100.00
57442;BME280;43284;47.042;15.498;2023-05-24T11:38:57;97260.88;;;15.91;100.00
57442;BME280;43284;47.042;15.498;2023-05-24T11:41:22;97262.34;;;15.95;100.00
57442;BME280;43284;47.042;15.498;2023-05-24T11:43:48;97265.72;;;15.97;100.00
57442;BME280;43284;47.042;15.498;2023-05-24T11:46:14;97263.19;;;15.95;100.00
57442;BME280;43284;47.042;15.498;2023-05-24T11:48:40;97261.28;;;15.97;100.00
57442;BME280;43284;47.042;15.498;2023-05-24T11:51:06;97259.38;;;15.99;100.00
57442;BME280;43284;47.042;15.498;2023-05-24T11:53:31;97258.00;;;15.94;100.00
57442;BME280;43284;47.042;15.498;2023-05-24T11:55:57;97260.13;;;15.76;100.00
57442;BME280;43284;47.042;15.498;2023-05-24T11:58:24;97253.38;;;15.84;100.00
57442;BME280;43284;47.042;15.498;2023-05-24T12:00:53;97260.22;;;15.87;99.32
57442;BME280;43284;47.042;15.498;2023-05-24T12:03:19;97258.13;;;15.92;99.27
57442;BME280;43284;47.042;15.498;2023-05-24T12:05:45;97261.50;;;15.94;100.00
57442;BME280;43284;47.042;15.498;2023-05-24T12:08:12;97259.91;;;15.92;99.79
57442;BME280;43284;47.042;15.498;2023-05-24T12:10:40;97252.31;;;15.87;100.00
57442;BME280;43284;47.042;15.498;2023-05-24T12:13:21;97257.91;;;15.82;100.00
57442;BME280;43284;47.042;15.498;2023-05-24T12:15:54;97257.06;;;15.82;100.00
57442;BME280;43284;47.042;15.498;2023-05-24T12:18:21;97259.38;;;15.74;100.00
57442;BME280;43284;47.042;15.498;2023-05-24T12:20:48;97260.06;;;15.63;100.00
57442;BME280;43284;47.042;15.498;2023-05-24T12:23:14;97261.34;;;15.57;100.00
57442;BME280;43284;47.042;15.498;2023-05-24T12:25:39;97255.00;;;15.60;100.00
57442;BME280;43284;47.042;15.498;2023-05-24T12:28:05;97254.78;;;15.63;100.00
57442;BME280;43284;47.042;15.498;2023-05-24T12:30:31;97259.31;;;15.61;100.00
57442;BME280;43284;47.042;15.498;2023-05-24T12:32:57;97263.41;;;15.52;100.00
57442;BME280;43284;47.042;15.498;2023-05-24T12:35:23;97260.03;;;15.50;100.00
57442;BME280;43284;47.042;15.498;2023-05-24T12:37:49;97261.75;;;15.51;100.00
57442;BME280;43284;47.042;15.498;2023-05-24T12:40:18;97254.78;;;15.50;100.00
57442;BME280;43284;47.042;15.498;2023-05-24T12:42:57;97261.09;;;15.48;100.00
57442;BME280;43284;47.042;15.498;2023-05-24T12:45:24;97256.13;;;15.43;100.00
57442;BME280;43284;47.042;15.498;2023-05-24T12:47:53;97254.47;;;15.42;100.00
57442;BME280;43284;47.042;15.498;2023-05-24T12:50:21;97256.25;;;15.41;100.00
57442;BME280;43284;47.042;15.498;2023-05-24T12:52:47;97254.78;;;15.37;100.00
57442;BME280;43284;47.042;15.498;2023-05-24T12:55:17;97260.34;;;15.33;100.00
57442;BME280;43284;47.042;15.498;2023-05-24T12:57:43;97253.81;;;15.38;100.00